Overview Statistics Trail Chart Weather Telemetry Raw packets
 

This is the latest recevied weather packets stored in our database for station/object KU4DD. If no packets are shown the sender has not sent any weather packets the latest 10 day(s).

<< 6 7 8 9 10 11 12 >>
Time Temp. Humidity Pressure Rain* Wind** Luminosity Snow
1788311779 28.89° C 76% 1016.3 hPa 0 mm - 0 W/m² -
1788310846 28.89° C 76% 1015.9 hPa 0 mm - 0 W/m² -
1788306835 30.56° C 72% 1015.9 hPa 0 mm - 0 W/m² -
1788304388 32.78° C 64% 1016.3 hPa 0 mm - 25 W/m² -
1788301278 33.89° C 59% 1016.3 hPa 0 mm - 53 W/m² -
1788296946 35° C 51% 1016.3 hPa 0 mm - 346 W/m² -
1788296627 35° C 53% 1016.3 hPa 0 mm - 392 W/m² -
1788291398 35° C 55% 1016.9 hPa 0 mm - 204 W/m² -
1788289549 35° C 55% 1016.9 hPa 0 mm - 833 W/m² -
1788287384 35° C 56% 1017.3 hPa 0 mm - 912 W/m² -
1788284884 34.44° C 56% 1017.6 hPa 0 mm - 988 W/m² -
1788284576 34.44° C 56% 1017.6 hPa 0 mm - 909 W/m² -
1788280872 33.33° C 58% 1018.3 hPa 0 mm - 846 W/m² -
1788279949 33.33° C 60% 1018.6 hPa 0 mm - 107 W/m² -
1788275940 32.22° C 61% 1019 hPa 0 mm - 729 W/m² -
1788275629 31.67° C 65% 1019 hPa 0 mm - 721 W/m² -
1788274387 31.67° C 69% 1019 hPa 0 mm - 675 W/m² -
1788274068 31.11° C 71% 1019 hPa 0 mm - 661 W/m² -
1788266656 25.56° C 93% 1019 hPa 0 mm - 308 W/m² -
1788265104 24.44° C 97% 1019 hPa 0 mm - 199 W/m² -
1788264161 23.89° C 97% 1019 hPa 0 mm - 155 W/m² -
1788263847 23.89° C 97% 1019 hPa 0 mm - 67 W/m² -
1788263533 23.89° C 97% 1018.6 hPa 0 mm - 74 W/m² -
1788263217 23.89° C 97% 1018.6 hPa 0 mm - 104 W/m² -
1788260440 23.33° C 97% 1018.3 hPa 0 mm - 11 W/m² -

* Rain latest hour (hover to see other rain measurements)
** Current wind speed in m/s (hover to see current wind gust speed)